createdAt,value
2022-12-31T00:00:22.058Z,79.75
2022-12-31T00:02:49.098Z,80.29
2022-12-31T00:05:16.303Z,80.27
2022-12-31T00:10:09.136Z,80.28
2022-12-31T00:12:36.115Z,80.32
2022-12-31T00:15:03.789Z,80.58
2022-12-31T00:17:30.819Z,80.75
2022-12-31T00:19:57.863Z,80.55
2022-12-31T00:22:26.723Z,81.10
2022-12-31T00:24:53.773Z,81.02
2022-12-31T00:27:22.542Z,81.27
2022-12-31T00:29:49.468Z,81.12
2022-12-31T00:32:16.538Z,81.02
2022-12-31T00:34:43.341Z,81.14
2022-12-31T00:37:10.325Z,81.17
2022-12-31T00:39:37.926Z,81.37
2022-12-31T00:42:05.219Z,81.28
2022-12-31T00:44:32.812Z,81.40
2022-12-31T00:46:59.711Z,81.33
2022-12-31T00:49:26.610Z,81.10
2022-12-31T00:51:53.780Z,81.33
2022-12-31T00:54:20.647Z,81.27
2022-12-31T00:56:47.583Z,81.50
2022-12-31T00:59:14.413Z,81.26
2022-12-31T01:01:42.732Z,81.23
2022-12-31T01:04:13.001Z,81.32
2022-12-31T01:06:40.968Z,81.30
2022-12-31T01:09:08.656Z,81.30
2022-12-31T01:11:36.161Z,81.47
2022-12-31T01:14:03.582Z,81.59
2022-12-31T01:16:34.512Z,81.68
2022-12-31T01:19:06.583Z,81.84
2022-12-31T01:21:35.026Z,81.90
2022-12-31T01:24:02.257Z,81.70
2022-12-31T01:26:30.008Z,81.83
2022-12-31T01:28:58.364Z,81.85
2022-12-31T01:31:26.182Z,81.84
2022-12-31T01:33:55.188Z,81.68
2022-12-31T01:36:28.155Z,81.75
2022-12-31T01:38:56.970Z,81.69
2022-12-31T01:41:35.085Z,81.86
2022-12-31T01:44:14.114Z,81.89
2022-12-31T01:46:53.135Z,82.08
2022-12-31T01:49:29.612Z,81.87
2022-12-31T01:52:07.548Z,81.70
2022-12-31T01:54:40.632Z,82.10
2022-12-31T01:57:09.525Z,81.76
2022-12-31T01:59:37.295Z,81.99
2022-12-31T02:02:05.163Z,82.01
2022-12-31T02:04:32.263Z,81.87
2022-12-31T02:07:03.156Z,82.12
2022-12-31T02:09:31.432Z,82.30
2022-12-31T02:11:58.331Z,81.99
2022-12-31T02:14:36.121Z,82.04
2022-12-31T02:17:24.744Z,82.16
2022-12-31T02:20:13.804Z,82.09
2022-12-31T02:23:10.903Z,82.09
2022-12-31T02:26:17.689Z,81.80
2022-12-31T02:29:12.419Z,81.85
2022-12-31T02:31:50.290Z,82.03
2022-12-31T02:34:26.552Z,81.99
2022-12-31T02:36:58.305Z,82.01
2022-12-31T02:39:29.103Z,81.76
2022-12-31T02:41:56.032Z,81.93
2022-12-31T02:44:27.589Z,82.32
2022-12-31T02:47:09.694Z,82.05
2022-12-31T02:50:04.679Z,82.21
2022-12-31T02:53:02.009Z,82.19
2022-12-31T02:56:01.153Z,82.12
2022-12-31T02:59:05.167Z,82.27
2022-12-31T03:01:56.070Z,82.23
2022-12-31T03:04:35.990Z,82.44
2022-12-31T03:07:14.141Z,82.80
2022-12-31T03:09:42.364Z,82.61
2022-12-31T03:12:33.259Z,82.66
2022-12-31T03:15:02.933Z,82.82
2022-12-31T03:17:34.531Z,82.75
2022-12-31T03:20:29.848Z,82.59
2022-12-31T03:22:57.230Z,82.74
2022-12-31T03:25:35.163Z,82.83
2022-12-31T03:28:04.764Z,83.00
2022-12-31T03:30:32.719Z,82.74
2022-12-31T03:33:01.860Z,82.65
2022-12-31T03:35:30.200Z,82.53
2022-12-31T03:37:58.681Z,82.69
2022-12-31T03:40:30.267Z,82.84
2022-12-31T03:42:57.713Z,82.73
2022-12-31T03:45:24.947Z,83.02
2022-12-31T03:47:52.775Z,82.96
2022-12-31T03:50:21.336Z,83.10
2022-12-31T03:52:48.739Z,83.24
2022-12-31T03:55:18.721Z,83.17
2022-12-31T03:57:45.659Z,83.01
2022-12-31T04:00:15.119Z,83.30
2022-12-31T04:02:42.427Z,83.26
2022-12-31T04:05:09.657Z,83.21
2022-12-31T04:07:36.704Z,83.20
2022-12-31T04:10:09.034Z,83.05
2022-12-31T04:12:36.818Z,83.29
2022-12-31T04:15:07.299Z,83.11
2022-12-31T04:17:34.276Z,82.94
2022-12-31T04:20:05.809Z,82.96
2022-12-31T04:22:32.780Z,82.85
2022-12-31T04:25:00.843Z,82.83
2022-12-31T04:27:27.965Z,82.95
2022-12-31T04:29:54.886Z,82.90
2022-12-31T04:32:22.677Z,82.70
2022-12-31T04:34:49.580Z,82.69
2022-12-31T04:37:18.573Z,82.62
2022-12-31T04:39:45.488Z,82.68
2022-12-31T04:42:12.624Z,82.96
2022-12-31T04:44:39.475Z,82.83
2022-12-31T04:47:06.279Z,82.95
2022-12-31T04:49:33.281Z,82.61
2022-12-31T04:52:00.099Z,82.67
2022-12-31T04:54:27.135Z,82.61
2022-12-31T04:56:53.974Z,82.54
2022-12-31T04:59:20.855Z,82.65
2022-12-31T05:01:47.921Z,82.75
2022-12-31T05:04:15.007Z,82.69
2022-12-31T05:06:41.940Z,82.57
2022-12-31T05:09:08.803Z,82.47
2022-12-31T05:11:35.930Z,82.62
2022-12-31T05:14:02.765Z,82.63
2022-12-31T05:16:29.677Z,82.57
2022-12-31T05:18:56.531Z,82.68
2022-12-31T05:21:23.436Z,82.59
2022-12-31T05:23:50.319Z,82.56
2022-12-31T05:26:17.482Z,82.58
2022-12-31T05:28:44.810Z,82.42
2022-12-31T05:31:11.792Z,82.36
2022-12-31T05:33:39.597Z,82.58
2022-12-31T05:36:06.795Z,82.43
2022-12-31T05:38:33.752Z,82.50
2022-12-31T05:41:04.399Z,82.41
2022-12-31T05:43:32.738Z,82.34
2022-12-31T05:46:05.702Z,82.46
2022-12-31T05:48:32.599Z,82.36
2022-12-31T05:50:59.523Z,82.45
2022-12-31T05:53:26.356Z,82.47
2022-12-31T05:55:53.157Z,82.46
2022-12-31T05:58:20.515Z,82.07
2022-12-31T06:00:49.150Z,82.15
2022-12-31T06:03:16.186Z,82.15
2022-12-31T06:05:43.567Z,82.23
2022-12-31T06:08:12.286Z,82.02
2022-12-31T06:10:40.521Z,82.14
2022-12-31T06:13:07.912Z,81.91
2022-12-31T06:15:40.289Z,81.83
2022-12-31T06:18:07.346Z,81.91
2022-12-31T06:20:36.804Z,81.86
2022-12-31T06:23:04.897Z,81.85
2022-12-31T06:25:31.897Z,81.75
2022-12-31T06:27:58.709Z,82.06
2022-12-31T06:30:25.528Z,81.72
2022-12-31T06:32:52.526Z,81.59
2022-12-31T06:35:19.302Z,81.57
2022-12-31T06:37:46.701Z,81.43
2022-12-31T06:40:14.088Z,81.55
2022-12-31T06:42:45.202Z,81.42
2022-12-31T06:45:14.439Z,81.35
2022-12-31T06:47:41.286Z,81.27
2022-12-31T06:50:08.741Z,81.24
2022-12-31T06:52:35.660Z,81.14
2022-12-31T06:55:04.759Z,81.21
2022-12-31T06:57:32.024Z,81.36
2022-12-31T06:59:59.279Z,81.07
2022-12-31T07:02:46.458Z,81.08
2022-12-31T07:05:26.906Z,81.08
2022-12-31T07:07:53.718Z,81.07
2022-12-31T07:10:56.308Z,80.91
2022-12-31T07:13:46.671Z,81.09
2022-12-31T07:16:51.914Z,80.79
2022-12-31T07:19:33.810Z,81.01
2022-12-31T07:22:01.162Z,80.78
2022-12-31T07:24:28.382Z,80.92
2022-12-31T07:27:06.431Z,80.75
2022-12-31T07:29:57.293Z,80.90
2022-12-31T07:32:34.163Z,80.32
2022-12-31T07:35:09.672Z,80.40
2022-12-31T07:38:00.079Z,80.35
2022-12-31T07:40:50.074Z,80.29
2022-12-31T07:43:35.726Z,80.47
2022-12-31T07:46:24.629Z,80.27
2022-12-31T07:48:52.086Z,80.27
2022-12-31T07:51:21.237Z,80.41
2022-12-31T07:53:50.595Z,80.37
2022-12-31T07:56:17.637Z,80.30
2022-12-31T07:59:03.980Z,80.13
2022-12-31T08:01:51.875Z,80.05
2022-12-31T08:04:18.760Z,80.24
2022-12-31T08:06:45.587Z,79.94
2022-12-31T08:09:50.334Z,79.84
2022-12-31T08:12:19.889Z,79.35
2022-12-31T08:14:48.164Z,79.27
2022-12-31T08:17:18.048Z,79.13
2022-12-31T08:19:48.613Z,79.13
2022-12-31T08:22:28.226Z,78.79
2022-12-31T08:25:03.430Z,78.71
2022-12-31T08:27:50.893Z,78.33
2022-12-31T08:30:21.284Z,78.58
2022-12-31T08:32:53.071Z,78.47
2022-12-31T08:35:47.925Z,78.21
2022-12-31T08:38:45.853Z,78.13
2022-12-31T08:41:30.297Z,78.03
2022-12-31T08:44:31.630Z,77.79
2022-12-31T08:47:17.866Z,77.79
2022-12-31T08:49:44.888Z,77.63
2022-12-31T08:52:30.495Z,77.43
2022-12-31T08:54:57.902Z,77.36
2022-12-31T08:57:53.409Z,77.25
2022-12-31T09:00:20.967Z,77.30
2022-12-31T09:03:03.131Z,77.18
2022-12-31T09:05:58.815Z,77.17
2022-12-31T09:08:46.822Z,76.99
2022-12-31T09:11:29.350Z,77.11
2022-12-31T09:14:40.425Z,76.92
2022-12-31T09:17:29.012Z,76.90
2022-12-31T09:19:57.569Z,76.66
2022-12-31T09:22:24.809Z,76.71
2022-12-31T09:24:51.792Z,76.62
2022-12-31T09:27:28.328Z,76.56
2022-12-31T09:30:04.037Z,76.66
2022-12-31T09:33:00.329Z,76.64
2022-12-31T09:35:57.857Z,76.70
2022-12-31T09:38:53.195Z,76.47
2022-12-31T09:41:35.693Z,76.43
2022-12-31T09:44:35.917Z,76.18
2022-12-31T09:47:21.238Z,76.00
2022-12-31T09:50:20.915Z,75.97
2022-12-31T09:53:24.821Z,76.21
2022-12-31T09:56:26.380Z,75.59
2022-12-31T09:59:13.070Z,75.21
2022-12-31T10:01:54.573Z,75.03
2022-12-31T10:04:40.872Z,74.78
2022-12-31T10:07:32.675Z,75.09
2022-12-31T10:10:05.554Z,74.87
2022-12-31T10:13:12.860Z,74.62
2022-12-31T10:15:59.476Z,74.10
2022-12-31T10:18:59.995Z,73.73
2022-12-31T10:21:44.279Z,73.94
2022-12-31T10:24:32.096Z,74.04
2022-12-31T10:27:08.662Z,73.81
2022-12-31T10:30:00.180Z,73.17
2022-12-31T10:32:44.044Z,72.32
2022-12-31T10:35:16.893Z,72.15
2022-12-31T10:37:59.928Z,72.51
2022-12-31T10:40:51.663Z,72.36
2022-12-31T10:43:45.938Z,72.47
2022-12-31T10:46:48.918Z,71.72
2022-12-31T10:49:53.613Z,71.23
2022-12-31T10:52:51.921Z,71.40
2022-12-31T10:55:31.901Z,69.93
2022-12-31T10:58:10.129Z,70.18
2022-12-31T11:00:46.873Z,69.74
2022-12-31T11:03:35.077Z,69.86
2022-12-31T11:06:23.754Z,68.25
2022-12-31T11:09:17.465Z,68.61
2022-12-31T11:12:01.505Z,68.22
2022-12-31T11:14:46.571Z,68.72
2022-12-31T11:17:21.209Z,69.10
2022-12-31T11:20:12.300Z,67.49
2022-12-31T11:23:16.733Z,67.69
2022-12-31T11:25:50.019Z,66.84
2022-12-31T11:28:33.421Z,66.92
2022-12-31T11:31:18.969Z,67.83
2022-12-31T11:34:16.567Z,67.78
2022-12-31T11:37:11.411Z,67.16
2022-12-31T11:39:47.613Z,66.90
2022-12-31T11:42:51.803Z,67.99
2022-12-31T11:45:35.715Z,67.47
2022-12-31T11:48:32.895Z,66.52
2022-12-31T11:51:33.472Z,66.46
2022-12-31T11:54:41.231Z,66.21
2022-12-31T11:57:37.462Z,64.69
2022-12-31T12:00:05.368Z,64.72
2022-12-31T12:02:49.089Z,64.17
2022-12-31T12:05:20.515Z,63.28
2022-12-31T12:07:49.011Z,63.49
2022-12-31T12:10:36.816Z,64.18
2022-12-31T12:13:13.758Z,63.73
2022-12-31T12:15:49.594Z,64.57
2022-12-31T12:18:28.442Z,62.32
2022-12-31T12:21:06.083Z,62.32
2022-12-31T12:23:33.164Z,62.54
2022-12-31T12:26:00.124Z,63.30
2022-12-31T12:28:30.161Z,61.34
2022-12-31T12:31:07.730Z,60.69
2022-12-31T12:33:44.092Z,60.20
2022-12-31T12:36:15.714Z,60.97
2022-12-31T12:38:43.450Z,61.60
2022-12-31T12:41:18.640Z,61.48
2022-12-31T12:43:45.589Z,61.68
2022-12-31T12:46:31.491Z,61.78
2022-12-31T12:48:58.840Z,61.06
2022-12-31T12:51:44.266Z,60.97
2022-12-31T12:54:49.793Z,59.82
2022-12-31T12:57:24.627Z,60.22
2022-12-31T12:59:54.530Z,59.99
2022-12-31T13:03:01.181Z,60.16
2022-12-31T13:06:23.021Z,58.04
2022-12-31T13:09:14.019Z,57.89
2022-12-31T13:12:07.795Z,58.99
2022-12-31T13:14:54.085Z,60.21
2022-12-31T13:18:01.952Z,58.39
2022-12-31T13:20:50.314Z,58.64
2022-12-31T13:23:34.829Z,58.25
2022-12-31T13:26:23.515Z,58.38
2022-12-31T13:28:53.276Z,58.36
2022-12-31T13:31:26.558Z,58.85
2022-12-31T13:34:01.182Z,59.29
2022-12-31T13:36:32.904Z,58.30
2022-12-31T13:39:05.739Z,58.15
2022-12-31T13:41:38.919Z,57.87
2022-12-31T13:44:15.070Z,57.86
2022-12-31T13:47:32.972Z,57.65
2022-12-31T13:50:14.248Z,57.97
2022-12-31T13:52:53.080Z,58.39
2022-12-31T13:55:35.895Z,57.99
2022-12-31T13:58:16.164Z,56.95
2022-12-31T14:00:55.622Z,57.24
2022-12-31T14:03:27.736Z,57.88
2022-12-31T14:06:24.126Z,57.69
2022-12-31T14:08:53.490Z,56.46
2022-12-31T14:11:55.808Z,57.16
2022-12-31T14:14:45.859Z,57.20
2022-12-31T14:17:31.244Z,57.60
2022-12-31T14:20:07.540Z,58.17
2022-12-31T14:22:56.397Z,58.53
2022-12-31T14:25:29.112Z,59.31
2022-12-31T14:27:58.081Z,59.77
2022-12-31T14:30:31.156Z,59.86
2022-12-31T14:33:36.010Z,60.24
2022-12-31T14:36:23.272Z,60.45
2022-12-31T14:39:17.426Z,60.82
2022-12-31T14:42:12.883Z,61.19
2022-12-31T14:44:50.616Z,61.21
2022-12-31T14:47:59.410Z,61.60
2022-12-31T14:50:29.784Z,61.59
2022-12-31T14:53:02.465Z,61.54
2022-12-31T14:55:34.589Z,62.06
2022-12-31T15:01:09.243Z,62.31
2022-12-31T15:03:46.065Z,62.54
2022-12-31T15:06:32.032Z,62.63
2022-12-31T15:09:15.213Z,62.78
2022-12-31T15:12:00.947Z,63.12
2022-12-31T15:14:44.680Z,63.01
2022-12-31T15:17:39.545Z,63.25
2022-12-31T15:20:28.802Z,63.35
2022-12-31T15:22:56.165Z,63.51
2022-12-31T15:25:35.388Z,63.62
2022-12-31T15:28:36.461Z,63.88
2022-12-31T15:31:20.921Z,63.87
2022-12-31T15:34:25.047Z,64.06
2022-12-31T15:36:55.490Z,64.31
2022-12-31T15:39:36.671Z,64.34
2022-12-31T15:42:37.483Z,64.57
2022-12-31T15:44:59.710Z,64.67
2022-12-31T15:47:38.516Z,64.72
2022-12-31T15:50:12.530Z,64.79
2022-12-31T15:52:48.157Z,64.81
2022-12-31T15:55:33.975Z,64.98
2022-12-31T15:58:10.108Z,65.21
2022-12-31T16:00:52.429Z,65.34
2022-12-31T16:03:24.255Z,65.25
2022-12-31T16:05:57.583Z,65.26
2022-12-31T16:08:28.922Z,65.50
2022-12-31T16:10:58.138Z,65.46
2022-12-31T16:13:29.160Z,65.64
2022-12-31T16:16:03.716Z,65.67
2022-12-31T16:18:40.477Z,65.70
2022-12-31T16:21:22.761Z,65.95
2022-12-31T16:23:52.214Z,66.05
2022-12-31T16:26:19.234Z,66.11
2022-12-31T16:28:49.554Z,66.03
2022-12-31T16:31:20.022Z,66.14
2022-12-31T16:33:47.788Z,66.26
2022-12-31T16:36:22.225Z,66.23
2022-12-31T16:38:49.948Z,66.29
2022-12-31T16:41:19.332Z,66.46
2022-12-31T16:43:49.146Z,66.56
2022-12-31T16:46:27.202Z,66.61
2022-12-31T16:49:15.882Z,66.62
2022-12-31T16:51:42.925Z,66.65
2022-12-31T16:54:20.848Z,66.73
2022-12-31T16:56:48.034Z,67.04
2022-12-31T16:59:30.520Z,66.91
2022-12-31T17:02:06.791Z,66.82
2022-12-31T17:04:33.846Z,66.94
2022-12-31T17:07:31.362Z,66.96
2022-12-31T17:10:07.156Z,67.06
2022-12-31T17:13:17.483Z,67.08
2022-12-31T17:15:41.356Z,67.02
2022-12-31T17:18:18.026Z,67.13
2022-12-31T17:20:44.904Z,67.18
2022-12-31T17:23:23.632Z,67.28
2022-12-31T17:25:58.423Z,67.16
2022-12-31T17:28:27.643Z,67.26
2022-12-31T17:31:28.260Z,67.28
2022-12-31T17:34:05.503Z,67.30
2022-12-31T17:36:32.504Z,67.33
2022-12-31T17:39:16.832Z,67.32
2022-12-31T17:41:47.926Z,67.25
2022-12-31T17:44:22.018Z,67.32
2022-12-31T17:46:50.426Z,67.33
2022-12-31T17:49:19.370Z,67.42
2022-12-31T17:51:47.859Z,67.32
2022-12-31T17:54:16.624Z,67.34
2022-12-31T17:56:44.010Z,67.41
2022-12-31T17:59:19.043Z,67.46
2022-12-31T18:01:45.963Z,67.52
2022-12-31T18:04:14.689Z,67.43
2022-12-31T18:06:42.206Z,67.51
2022-12-31T18:09:09.458Z,67.40
2022-12-31T18:11:38.710Z,67.40
2022-12-31T18:14:05.529Z,67.33
2022-12-31T18:16:32.314Z,67.45
2022-12-31T18:19:00.797Z,67.41
2022-12-31T18:21:33.123Z,67.37
2022-12-31T18:26:28.474Z,67.40
2022-12-31T18:28:56.889Z,67.31
2022-12-31T18:31:29.946Z,67.46
2022-12-31T18:33:58.782Z,67.42
2022-12-31T18:36:27.650Z,67.29
2022-12-31T18:38:54.659Z,67.26
2022-12-31T18:41:24.251Z,67.52
2022-12-31T18:43:51.119Z,67.52
2022-12-31T18:46:23.907Z,67.58
2022-12-31T18:48:50.955Z,67.63
2022-12-31T18:51:20.730Z,67.60
2022-12-31T18:53:48.083Z,67.72
2022-12-31T18:56:19.825Z,67.81
2022-12-31T18:58:47.120Z,67.84
2022-12-31T19:01:37.396Z,67.81
2022-12-31T19:04:13.438Z,67.91
2022-12-31T19:06:40.589Z,67.89
2022-12-31T19:09:23.752Z,67.95
2022-12-31T19:11:54.151Z,67.92
2022-12-31T19:14:24.293Z,68.00
2022-12-31T19:16:53.433Z,68.09
2022-12-31T19:19:21.215Z,68.04
2022-12-31T19:21:48.278Z,68.18
2022-12-31T19:24:21.563Z,68.16
2022-12-31T19:26:49.216Z,68.05
2022-12-31T19:29:19.255Z,68.20
2022-12-31T19:31:46.221Z,68.22
2022-12-31T19:34:13.133Z,68.19
2022-12-31T19:36:44.146Z,68.29
2022-12-31T19:39:20.283Z,68.17
2022-12-31T19:41:56.629Z,68.13
2022-12-31T19:44:25.986Z,68.08
2022-12-31T19:46:52.773Z,67.77
2022-12-31T19:49:19.488Z,67.82
2022-12-31T19:51:46.343Z,67.62
2022-12-31T19:54:13.451Z,67.54
2022-12-31T19:56:40.615Z,67.42
2022-12-31T19:59:09.569Z,67.22
2022-12-31T20:01:36.606Z,66.92
2022-12-31T20:04:03.739Z,66.74
2022-12-31T20:06:31.483Z,66.60
2022-12-31T20:08:58.332Z,66.44
2022-12-31T20:11:25.319Z,66.19
2022-12-31T20:13:54.046Z,66.21
2022-12-31T20:16:23.766Z,66.09
2022-12-31T20:18:51.023Z,65.84
2022-12-31T20:21:23.489Z,65.90
2022-12-31T20:23:51.133Z,65.88
2022-12-31T20:26:19.468Z,65.95
2022-12-31T20:28:46.562Z,65.85
2022-12-31T20:31:16.049Z,65.96
2022-12-31T20:33:43.172Z,65.91
2022-12-31T20:36:12.992Z,65.98
2022-12-31T20:38:40.013Z,65.85
2022-12-31T20:41:08.509Z,65.81
2022-12-31T20:43:36.339Z,65.91
2022-12-31T20:46:14.554Z,65.88
2022-12-31T20:48:42.335Z,66.00
2022-12-31T20:51:09.116Z,65.99
2022-12-31T20:53:36.062Z,66.00
2022-12-31T20:56:07.146Z,65.94
2022-12-31T20:58:34.640Z,66.03
2022-12-31T21:01:01.622Z,66.01
2022-12-31T21:04:03.780Z,66.13
2022-12-31T21:06:15.781Z,66.12
2022-12-31T21:08:43.282Z,66.13
2022-12-31T21:11:28.947Z,66.21
2022-12-31T21:13:57.435Z,66.26
2022-12-31T21:16:25.281Z,66.32
2022-12-31T21:18:52.818Z,66.51
2022-12-31T21:21:19.812Z,66.49
2022-12-31T21:23:46.958Z,66.51
2022-12-31T21:26:13.934Z,66.58
2022-12-31T21:28:40.707Z,66.49
2022-12-31T21:31:08.389Z,66.39
2022-12-31T21:33:35.376Z,66.48
2022-12-31T21:36:04.661Z,66.30
2022-12-31T21:38:32.004Z,66.36
2022-12-31T21:41:06.812Z,66.47
2022-12-31T21:43:33.992Z,66.44
2022-12-31T21:46:05.920Z,66.55
2022-12-31T21:48:33.407Z,66.62
2022-12-31T21:51:09.991Z,66.69
2022-12-31T21:53:37.604Z,66.77
2022-12-31T21:56:16.203Z,66.83
2022-12-31T21:59:12.048Z,66.83
2022-12-31T22:01:57.468Z,66.97
2022-12-31T22:05:00.493Z,66.96
2022-12-31T22:07:10.944Z,66.95
2022-12-31T22:09:37.662Z,67.04
2022-12-31T22:12:04.741Z,67.00
2022-12-31T22:14:31.449Z,67.07
2022-12-31T22:16:58.211Z,67.05
2022-12-31T22:19:26.082Z,67.06
2022-12-31T22:21:52.867Z,66.99
2022-12-31T22:24:19.601Z,66.97
2022-12-31T22:26:47.072Z,67.03
2022-12-31T22:29:14.010Z,67.09
2022-12-31T22:31:40.807Z,67.11
2022-12-31T22:34:07.667Z,67.20
2022-12-31T22:36:34.547Z,67.23
2022-12-31T22:39:01.339Z,67.04
2022-12-31T22:41:29.154Z,67.04
2022-12-31T22:44:05.823Z,67.05
2022-12-31T22:46:33.872Z,67.19
2022-12-31T22:49:02.466Z,67.16
2022-12-31T22:51:58.710Z,67.15
2022-12-31T22:54:24.517Z,67.26
2022-12-31T22:56:51.968Z,67.30
2022-12-31T22:59:19.465Z,67.29
2022-12-31T23:01:46.883Z,67.18
2022-12-31T23:04:14.552Z,67.28
2022-12-31T23:06:44.445Z,67.28
2022-12-31T23:09:42.141Z,67.34
2022-12-31T23:12:09.920Z,67.34
2022-12-31T23:14:56.015Z,67.35
2022-12-31T23:17:45.630Z,67.47
2022-12-31T23:20:41.733Z,67.58
2022-12-31T23:23:14.273Z,67.46
2022-12-31T23:25:47.273Z,67.42
2022-12-31T23:28:21.620Z,67.59
2022-12-31T23:30:53.756Z,67.66
2022-12-31T23:33:25.928Z,67.54
2022-12-31T23:36:06.523Z,67.70
2022-12-31T23:38:33.407Z,67.69
2022-12-31T23:41:00.293Z,67.72
2022-12-31T23:43:30.198Z,67.67
2022-12-31T23:45:57.114Z,67.70
2022-12-31T23:48:23.954Z,67.78
2022-12-31T23:50:54.149Z,67.92
2022-12-31T23:53:23.019Z,67.85
2022-12-31T23:55:50.483Z,68.08
2022-12-31T23:58:17.501Z,68.03
